Pagrindinis puslapis
METAR-TAF:

METAR-TAF

Oro uostai :

Wharton, Teksasas, Jungtinės Amerikos Valstijos

platuma: 29-15-15N, ilguma: 096-09-15W, Aukštis: 31 m

Dabartinis oras

Ataskaita buvo paskelbta 20 minutes, ne 04:15 UTC
Vėjas 4 kt iš Pietryčių
Temperatūra 20°C
Drėgmė 94%
Slėgis 1015 hPa
Matomumas: 16.1 km
Apsiniaukę ne aukštis 1400 ft

METAR: KARM 170415Z AUTO 13004KT 10SM OVC014 20/19 A2996 RMK AO2 LTG DSNT E T02010190

Laikas: 23:35 (04:35 UTC)


TAF: trūkstamas

Orai ataskaitas ir orų prognozės (METAR, TAF).

turimą stotys yra geltonos ir raudonos taškus žemėlapyje.

Perkelti pele per norėdami pamatyti stoties vardą.

Tada spustelėkite, norėdami matyti oro stebėjimo ir prognozės.

Norėdami pakeisti žemėlapį: spustelėkite ant žalios mygtukų su juodo kryžiaus žemyn,; žalią mygtuką su brūkšneliu, jei norite nutolinti; arba žalių rodyklių gretimoms žemėlapius.


METAR-TAF: